Time;durP1;ratioP1;P1;durP2;ratioP2;P2;SDS_P1;SDS_P2;PMS_P1;PMS_P2;Temp;Humidity;BMP_temperature;BMP_pressure;BME280_temperature;BME280_humidity;BME280_pressure;Samples;Min_cycle;Max_cycle;Signal;HPM_P1;HPM_P2
2022/11/13 00:00:34;;;;;;;;;1.00;1.00;;;;;15.18;52.96;100781.75;5064090;28;45390;-76
2022/11/13 00:02:59;;;;;;;;;0.00;0.00;;;;;15.08;52.68;100764.94;5068837;28;46840;-71
2022/11/13 00:05:25;;;;;;;;;0.67;0.00;;;;;15.06;52.54;100769.31;5058401;28;45517;-74
2022/11/13 00:07:51;;;;;;;;;0.00;0.00;;;;;15.09;53.36;100778.13;5060420;28;45447;-70
2022/11/13 00:10:17;;;;;;;;;0.00;0.00;;;;;15.06;53.46;100774.56;5066091;28;45482;-74
2022/11/13 00:12:43;;;;;;;;;1.33;1.00;;;;;14.96;54.45;100770.94;5070469;28;46623;-71
2022/11/13 00:15:09;;;;;;;;;2.00;1.67;;;;;14.89;54.70;100767.31;5070927;28;45329;-74
2022/11/13 00:17:35;;;;;;;;;2.00;1.67;;;;;14.80;54.80;100761.91;5075489;28;45469;-74
2022/11/13 00:20:01;;;;;;;;;0.33;0.00;;;;;14.73;54.44;100767.06;5071118;28;45420;-71
2022/11/13 00:22:26;;;;;;;;;1.67;1.67;;;;;14.77;54.93;100775.00;5067500;28;45486;-69
2022/11/13 00:24:52;;;;;;;;;0.00;0.00;;;;;14.70;55.40;100766.13;5068015;28;45573;-75
2022/11/13 00:27:17;;;;;;;;;2.00;1.00;;;;;14.61;55.41;100757.22;5072297;28;45455;-72
2022/11/13 00:29:43;;;;;;;;;0.00;0.00;;;;;14.61;55.54;100765.09;5061259;28;45462;-70
2022/11/13 00:32:09;;;;;;;;;1.00;0.00;;;;;14.60;55.64;100763.31;5057121;28;46074;-72
2022/11/13 00:34:34;;;;;;;;;1.67;1.00;;;;;14.53;56.06;100757.03;5059172;28;45300;-70
2022/11/13 00:37:00;;;;;;;;;0.00;0.00;;;;;14.49;55.97;100753.47;5056203;28;45181;-73
2022/11/13 00:39:25;;;;;;;;;0.00;0.00;;;;;14.44;56.22;100749.91;5059534;28;45385;-72
2022/11/13 00:41:51;;;;;;;;;2.00;2.00;;;;;14.38;56.82;100752.38;5063187;28;45547;-70
2022/11/13 00:44:16;;;;;;;;;2.00;1.00;;;;;14.27;56.79;100740.81;5059971;28;45424;-71
2022/11/13 00:46:41;;;;;;;;;1.00;1.00;;;;;14.28;57.09;100759.25;5070769;28;45461;-71
2022/11/13 00:49:07;;;;;;;;;0.67;0.33;;;;;14.17;57.10;100755.53;5075933;28;45297;-71
2022/11/13 00:51:33;;;;;;;;;0.33;0.33;;;;;14.11;57.88;100753.66;5070704;28;45928;-70
2022/11/13 00:53:58;;;;;;;;;1.33;1.00;;;;;14.11;58.13;100765.91;5071501;28;45286;-70
2022/11/13 00:56:24;;;;;;;;;1.00;1.00;;;;;14.07;57.82;100766.72;5069999;28;45477;-72
2022/11/13 00:58:49;;;;;;;;;0.00;0.00;;;;;13.99;58.78;100761.31;5069794;28;45516;-71
2022/11/13 01:01:18;;;;;;;;;1.00;1.00;;;;;13.92;58.63;100762.91;5069224;28;45565;-69
2022/11/13 01:03:43;;;;;;;;;1.00;0.00;;;;;13.87;58.75;100761.09;5071772;28;45429;-70
2022/11/13 01:06:27;;;;;;;;;1.00;0.00;;;;;13.73;59.06;100752.94;5070431;28;46125;-73
2022/11/13 01:08:55;;;;;;;;;0.00;0.00;;;;;13.79;58.96;100778.44;5056373;28;45562;-72
2022/11/13 01:11:24;;;;;;;;;1.00;1.00;;;;;13.74;59.28;100775.69;5073981;28;45715;-73
2022/11/13 01:13:50;;;;;;;;;0.67;0.67;;;;;13.72;59.27;100774.78;5071784;28;45322;-71
2022/11/13 01:16:18;;;;;;;;;0.00;0.00;;;;;13.66;59.21;100786.03;5072566;28;45272;-71
2022/11/13 01:18:44;;;;;;;;;2.00;0.00;;;;;13.63;59.58;100791.22;5059083;28;45359;-70
2022/11/13 01:21:13;;;;;;;;;1.00;1.00;;;;;13.57;59.36;100785.84;5071144;28;46287;-75
2022/11/13 01:23:39;;;;;;;;;0.00;0.00;;;;;13.57;59.90;100787.56;5074515;28;45560;-73
2022/11/13 01:26:15;;;;;;;;;1.00;0.00;;;;;13.55;60.01;100784.94;5072986;28;45599;-73
2022/11/13 01:28:41;;;;;;;;;0.00;0.00;;;;;13.45;59.80;100770.72;5073599;28;45592;-74
2022/11/13 01:31:10;;;;;;;;;0.00;0.00;;;;;13.36;62.44;100791.50;5060139;28;45493;-73
2022/11/13 01:33:36;;;;;;;;;1.33;0.67;;;;;13.20;62.28;100779.72;5071714;28;45421;-73
2022/11/13 01:36:05;;;;;;;;;1.00;0.67;;;;;13.06;62.13;100775.91;5076784;28;45488;-74
2022/11/13 01:38:30;;;;;;;;;1.00;0.00;;;;;13.01;61.99;100777.53;5060700;28;45675;-72
2022/11/13 01:40:56;;;;;;;;;1.00;1.00;;;;;13.06;61.84;100787.28;5058091;28;45420;-74
2022/11/13 01:43:32;;;;;;;;;0.00;0.00;;;;;13.05;61.73;100785.53;5064795;28;45502;-74
2022/11/13 01:45:57;;;;;;;;;1.00;1.00;;;;;13.06;61.74;100778.53;5063986;28;45253;-71
2022/11/13 01:48:27;;;;;;;;;0.00;0.00;;;;;13.05;61.38;100763.63;5068569;28;45501;-70
2022/11/13 01:50:54;;;;;;;;;4.50;4.50;;;;;13.07;61.41;100772.41;5061182;28;46544;-70
2022/11/13 01:53:20;;;;;;;;;2.00;1.00;;;;;13.11;60.62;100761.16;5072491;27;45749;-71
2022/11/13 01:55:46;;;;;;;;;1.00;1.00;;;;;13.10;60.44;100754.16;5074181;28;45455;-71
2022/11/13 01:58:13;;;;;;;;;0.67;0.67;;;;;13.25;59.81;100754.50;5073339;28;45473;-71
2022/11/13 02:00:40;;;;;;;;;0.00;0.00;;;;;13.32;59.61;100743.31;5072699;28;46310;-70
2022/11/13 02:03:05;;;;;;;;;1.00;1.00;;;;;13.33;59.23;100734.59;5071627;28;45626;-73
2022/11/13 02:05:31;;;;;;;;;0.00;0.00;;;;;13.43;59.04;100742.66;5071247;28;45415;-70
2022/11/13 02:07:57;;;;;;;;;1.00;0.00;;;;;13.47;59.43;100736.66;5069353;28;45711;-71
2022/11/13 02:10:22;;;;;;;;;0.00;0.00;;;;;13.51;58.79;100731.47;5078823;28;45566;-70
2022/11/13 02:12:50;;;;;;;;;1.00;1.00;;;;;13.50;59.33;100719.19;5077997;28;45462;-71
2022/11/13 02:15:23;;;;;;;;;1.00;1.00;;;;;13.54;59.07;100722.78;5077631;28;45513;-71
2022/11/13 02:17:57;;;;;;;;;1.00;1.00;;;;;13.51;58.74;100714.84;5077348;28;45471;-70
2022/11/13 02:20:35;;;;;;;;;1.00;1.00;;;;;13.60;58.37;100737.75;5083256;27;46382;-71
2022/11/13 02:23:23;;;;;;;;;0.00;0.00;;;;;13.61;58.45;100744.78;5076817;28;45516;-75
2022/11/13 02:25:52;;;;;;;;;0.00;0.00;;;;;13.61;58.04;100745.69;5077887;28;45529;-74
2022/11/13 02:28:17;;;;;;;;;1.00;1.00;;;;;13.46;59.83;100740.97;5074140;28;45417;-71
2022/11/13 02:30:43;;;;;;;;;1.00;1.00;;;;;13.35;60.35;100758.25;5075875;28;45946;-74
2022/11/13 02:33:24;;;;;;;;;0.00;0.00;;;;;13.09;61.99;100754.97;5077409;28;45461;-71
2022/11/13 02:35:50;;;;;;;;;1.00;1.00;;;;;12.80;62.79;100754.31;5076521;28;45517;-70
2022/11/13 02:38:16;;;;;;;;;1.00;1.00;;;;;12.72;62.13;100749.75;5076701;28;45506;-70
2022/11/13 02:40:42;;;;;;;;;1.00;1.00;;;;;12.74;61.91;100745.44;5077858;28;45503;-70
2022/11/13 02:43:07;;;;;;;;;1.00;0.33;;;;;12.80;61.79;100741.22;5079008;28;45456;-70
2022/11/13 02:45:33;;;;;;;;;0.00;0.00;;;;;12.86;61.53;100738.72;5077899;28;45410;-75
2022/11/13 02:47:59;;;;;;;;;0.00;0.00;;;;;12.87;61.39;100733.53;5076603;28;45499;-73
2022/11/13 02:50:26;;;;;;;;;1.00;1.00;;;;;12.91;60.76;100730.13;5074148;27;45471;-73
2022/11/13 02:52:51;;;;;;;;;0.33;0.33;;;;;12.95;60.54;100715.31;5076986;28;45395;-74
2022/11/13 02:55:17;;;;;;;;;0.00;0.00;;;;;12.91;60.63;100703.91;5075247;28;45719;-75
2022/11/13 02:57:42;;;;;;;;;1.25;1.00;;;;;12.95;60.07;100694.34;5074700;28;45422;-74
2022/11/13 03:00:08;;;;;;;;;1.00;1.00;;;;;13.09;60.14;100718.25;5076064;28;45867;-74
2022/11/13 03:02:34;;;;;;;;;1.00;1.00;;;;;13.07;59.85;100704.22;5073354;28;45528;-74
2022/11/13 03:05:00;;;;;;;;;1.00;1.00;;;;;13.12;60.23;100703.47;5059999;28;45277;-74
2022/11/13 03:07:25;;;;;;;;;1.00;1.00;;;;;13.15;59.55;100700.06;5075863;28;45320;-75
2022/11/13 03:09:50;;;;;;;;;1.00;0.00;;;;;13.14;58.89;100682.53;5056800;28;45601;-73
2022/11/13 03:12:16;;;;;;;;;1.00;0.00;;;;;13.30;58.58;100687.28;5077410;28;45520;-74
2022/11/13 03:14:41;;;;;;;;;1.00;0.33;;;;;13.32;58.09;100682.09;5076641;28;45382;-73
2022/11/13 03:17:07;;;;;;;;;1.00;1.00;;;;;13.40;57.69;100679.63;5074261;28;45637;-74
2022/11/13 03:19:32;;;;;;;;;0.00;0.00;;;;;13.39;58.60;100681.38;5076303;28;46103;-73
2022/11/13 03:21:58;;;;;;;;;0.00;0.00;;;;;13.38;58.59;100679.59;5075297;28;45521;-74
2022/11/13 03:24:24;;;;;;;;;1.33;0.33;;;;;13.30;58.83;100668.03;5075229;28;45482;-75
2022/11/13 03:26:49;;;;;;;;;1.00;1.00;;;;;13.35;58.51;100687.41;5075362;28;45418;-74
2022/11/13 03:29:15;;;;;;;;;0.00;0.00;;;;;13.33;58.46;100676.88;5076595;28;45968;-74
2022/11/13 03:31:40;;;;;;;;;0.00;0.00;;;;;13.36;58.10;100673.41;5076332;28;45557;-74
2022/11/13 03:34:06;;;;;;;;;1.33;1.00;;;;;13.40;57.41;100677.88;5076386;28;45884;-73
2022/11/13 03:36:31;;;;;;;;;0.67;0.00;;;;;13.48;57.51;100675.41;5076815;28;45611;-74
2022/11/13 03:38:58;;;;;;;;;1.00;0.00;;;;;13.49;57.76;100670.19;5075067;28;46386;-74
2022/11/13 03:41:23;;;;;;;;;0.67;0.67;;;;;13.45;57.65;100664.84;5073243;28;45548;-73
2022/11/13 03:43:49;;;;;;;;;2.00;0.67;;;;;13.49;58.10;100666.69;5058218;28;45482;-74
2022/11/13 03:46:14;;;;;;;;;0.67;0.67;;;;;13.47;57.76;100663.16;5058580;28;45574;-71
2022/11/13 03:48:40;;;;;;;;;1.67;1.00;;;;;13.41;57.98;100663.91;5057678;28;46485;-75
2022/11/13 03:51:06;;;;;;;;;0.00;0.00;;;;;13.44;57.86;100666.59;5054876;28;45338;-75
2022/11/13 03:53:32;;;;;;;;;2.00;1.00;;;;;13.45;57.72;100670.09;5074310;28;45533;-73
2022/11/13 03:55:57;;;;;;;;;1.00;0.00;;;;;13.45;57.58;100665.75;5053700;28;45639;-75
2022/11/13 03:58:23;;;;;;;;;0.33;0.33;;;;;13.62;56.53;100668.69;5074208;28;45520;-71
2022/11/13 04:00:49;;;;;;;;;1.00;0.33;;;;;13.72;56.39;100656.63;5075546;28;45389;-74
2022/11/13 04:03:14;;;;;;;;;1.00;1.00;;;;;13.79;56.05;100669.03;5057774;28;45461;-74
2022/11/13 04:05:41;;;;;;;;;1.00;0.33;;;;;13.90;55.46;100672.72;5075186;28;45522;-74
2022/11/13 04:08:08;;;;;;;;;1.00;1.00;;;;;14.03;55.12;100670.34;5076041;28;45403;-74
2022/11/13 04:10:33;;;;;;;;;1.00;1.00;;;;;14.07;54.53;100657.28;5054757;28;45760;-74
2022/11/13 04:12:59;;;;;;;;;1.00;1.00;;;;;14.22;54.71;100663.63;5073652;28;45425;-74
2022/11/13 04:15:25;;;;;;;;;1.00;1.00;;;;;14.20;54.81;100636.47;5075741;28;45474;-73
2022/11/13 04:17:50;;;;;;;;;2.00;1.00;;;;;14.29;54.12;100644.50;5076254;28;45481;-72
2022/11/13 04:20:16;;;;;;;;;0.00;0.00;;;;;14.30;54.18;100635.75;5073582;28;45346;-74
2022/11/13 04:22:42;;;;;;;;;0.33;0.33;;;;;14.33;54.19;100630.56;5074043;28;45486;-75
2022/11/13 04:25:08;;;;;;;;;2.00;1.00;;;;;14.40;53.89;100631.53;5076535;28;45402;-75
2022/11/13 04:27:34;;;;;;;;;1.00;1.00;;;;;14.37;54.01;100623.59;5075677;28;46037;-75
2022/11/13 04:30:00;;;;;;;;;1.00;1.00;;;;;14.47;54.17;100638.66;5057107;28;45366;-73
2022/11/13 04:32:25;;;;;;;;;1.00;0.00;;;;;14.49;54.07;100631.69;5074062;28;45615;-74
2022/11/13 04:34:51;;;;;;;;;0.00;0.00;;;;;14.50;53.72;100621.19;5055994;28;45490;-73
2022/11/13 04:37:16;;;;;;;;;1.67;1.33;;;;;14.45;53.61;100604.47;5072256;28;45510;-73
2022/11/13 04:39:42;;;;;;;;;1.00;1.00;;;;;14.50;54.05;100621.19;5074202;28;45787;-75
2022/11/13 04:44:54;;;;;;;;;2.00;1.00;;;;;14.49;53.76;100611.53;5074108;28;45358;-74
2022/11/13 04:47:20;;;;;;;;;1.00;1.00;;;;;14.44;54.08;100600.06;5074196;28;45453;-70
2022/11/13 04:49:45;;;;;;;;;1.00;1.00;;;;;14.55;53.55;100610.75;5071391;28;45899;-70
2022/11/13 04:52:11;;;;;;;;;1.33;1.00;;;;;14.49;53.53;100593.13;5075164;28;45461;-71
2022/11/13 04:54:37;;;;;;;;;0.00;0.00;;;;;14.41;53.51;100567.59;5057813;28;45561;-71
2022/11/13 04:57:03;;;;;;;;;1.33;1.00;;;;;14.49;53.71;100595.75;5074634;28;45533;-72
2022/11/13 04:59:28;;;;;;;;;1.00;1.00;;;;;14.52;53.90;100597.53;5073590;28;45424;-72
2022/11/13 05:01:54;;;;;;;;;1.33;1.00;;;;;14.49;53.89;100600.13;5073573;28;45296;-72
2022/11/13 05:04:20;;;;;;;;;0.33;0.00;;;;;14.41;54.33;100593.88;5053276;28;46326;-71
2022/11/13 05:06:46;;;;;;;;;1.00;1.00;;;;;14.38;54.21;100588.56;5073058;28;45574;-72
2022/11/13 05:09:12;;;;;;;;;2.00;1.00;;;;;14.39;54.88;100593.84;5076056;28;45435;-72
2022/11/13 05:11:38;;;;;;;;;1.00;1.00;;;;;14.35;54.89;100589.41;5066475;28;45363;-72
2022/11/13 05:14:04;;;;;;;;;2.00;1.00;;;;;14.37;54.07;100592.06;5076326;28;45292;-71
2022/11/13 05:16:29;;;;;;;;;3.00;2.00;;;;;14.42;53.34;100574.59;5057806;28;45465;-71
2022/11/13 05:18:57;;;;;;;;;2.00;2.00;;;;;14.63;53.11;100576.72;5076173;28;45359;-71
2022/11/13 05:21:22;;;;;;;;;2.00;1.00;;;;;14.62;52.70;100577.56;5076478;28;45676;-71
2022/11/13 05:23:48;;;;;;;;;1.00;1.00;;;;;14.75;52.54;100583.88;5076438;28;45208;-71
2022/11/13 05:26:14;;;;;;;;;2.00;1.00;;;;;14.83;52.20;100579.59;5076080;28;45412;-73
2022/11/13 05:28:39;;;;;;;;;1.33;1.00;;;;;14.86;52.38;100580.53;5076052;28;45496;-71
2022/11/13 05:31:11;;;;;;;;;0.00;0.00;;;;;14.96;51.33;100572.75;5076185;28;45383;-72
2022/11/13 05:33:38;;;;;;;;;1.33;1.33;;;;;14.95;51.50;100563.97;5070301;28;45476;-70
2022/11/13 05:36:09;;;;;;;;;4.00;1.00;;;;;15.11;51.26;100559.78;5069613;28;45464;-70
2022/11/13 05:38:35;;;;;;;;;2.33;2.00;;;;;15.24;50.54;100555.53;5048974;28;45492;-71
2022/11/13 05:41:05;;;;;;;;;2.00;1.33;;;;;15.35;50.55;100564.44;5054887;28;45256;-72
2022/11/13 05:43:31;;;;;;;;;2.33;2.00;;;;;15.35;50.62;100561.81;5074839;28;45430;-71
2022/11/13 05:46:24;;;;;;;;;1.00;1.00;;;;;15.34;50.57;100549.53;5072818;28;46144;-74
2022/11/13 05:48:55;;;;;;;;;1.00;1.00;;;;;15.40;50.28;100549.59;5048720;28;45547;-73
2022/11/13 05:51:26;;;;;;;;;1.67;1.67;;;;;15.42;50.25;100546.94;5072318;27;45322;-70
2022/11/13 05:53:53;;;;;;;;;1.33;1.00;;;;;15.47;49.84;100545.25;5075264;28;45518;-70
2022/11/13 05:56:36;;;;;;;;;2.00;2.00;;;;;15.46;49.98;100541.75;5072955;28;45571;-71
2022/11/13 05:59:03;;;;;;;;;2.00;2.00;;;;;15.48;50.00;100547.91;5075917;28;45522;-74
2022/11/13 06:01:31;;;;;;;;;2.00;1.67;;;;;15.44;50.29;100540.84;5078228;28;45644;-73
2022/11/13 06:03:58;;;;;;;;;1.00;1.00;;;;;15.50;49.91;100540.03;5078260;28;45473;-73
2022/11/13 06:06:26;;;;;;;;;2.00;2.00;;;;;15.56;49.41;100540.09;5076574;28;45321;-74
2022/11/13 06:08:53;;;;;;;;;1.00;1.00;;;;;15.69;48.81;100531.41;5073598;28;45513;-74
2022/11/13 06:11:22;;;;;;;;;5.00;3.00;;;;;15.74;48.33;100531.50;5059876;28;45530;-74
2022/11/13 06:13:48;;;;;;;;;1.00;1.00;;;;;15.79;48.35;100529.78;5076939;28;45441;-74
2022/11/13 06:16:18;;;;;;;;;2.00;2.00;;;;;15.81;48.34;100522.75;5076504;28;46060;-75
2022/11/13 06:18:45;;;;;;;;;1.67;1.00;;;;;15.96;48.10;100534.31;5078168;28;45456;-74
2022/11/13 06:21:16;;;;;;;;;2.00;2.00;;;;;16.04;47.55;100536.13;5075634;28;45444;-73
2022/11/13 06:23:42;;;;;;;;;1.33;1.33;;;;;16.13;47.35;100534.44;5074156;28;45484;-74
2022/11/13 06:26:14;;;;;;;;;2.00;1.00;;;;;16.04;47.58;100522.09;5076742;28;45364;-72
2022/11/13 06:28:40;;;;;;;;;1.00;1.00;;;;;16.14;47.79;100538.84;5077870;28;45380;-72
2022/11/13 06:31:15;;;;;;;;;4.67;4.00;;;;;16.10;48.00;100532.66;5075894;28;45567;-74
2022/11/13 06:33:41;;;;;;;;;5.00;4.00;;;;;16.01;48.31;100522.03;5076823;28;45318;-72
2022/11/13 06:36:13;;;;;;;;;1.67;1.67;;;;;16.08;47.51;100530.00;5076986;28;46086;-73
2022/11/13 06:38:40;;;;;;;;;3.67;3.00;;;;;16.13;47.51;100532.66;5077603;28;45498;-73
2022/11/13 06:41:07;;;;;;;;;3.00;2.00;;;;;16.15;47.63;100527.41;5075815;28;45329;-74
2022/11/13 06:43:33;;;;;;;;;6.33;6.00;;;;;16.09;47.76;100528.25;5075930;28;45577;-72
2022/11/13 06:46:03;;;;;;;;;10.67;10.00;;;;;16.15;47.77;100535.31;5077687;28;45560;-75
2022/11/13 06:48:29;;;;;;;;;3.00;2.00;;;;;16.09;47.60;100525.59;5078111;28;45463;-75
2022/11/13 06:51:00;;;;;;;;;11.25;11.25;;;;;16.14;47.95;100534.44;5076170;28;45354;-74
2022/11/13 06:53:25;;;;;;;;;5.00;4.00;;;;;16.17;47.74;100541.47;5075070;28;45662;-75
2022/11/13 06:55:51;;;;;;;;;3.00;3.00;;;;;16.10;47.59;100527.38;5075485;28;45997;-74
2022/11/13 06:58:16;;;;;;;;;3.00;2.33;;;;;16.22;47.71;100534.50;5074540;28;45507;-73
2022/11/13 07:00:42;;;;;;;;;8.00;3.00;;;;;16.11;47.80;100523.88;5057318;28;45469;-74
2022/11/13 07:03:18;;;;;;;;;3.00;2.00;;;;;16.21;48.02;100548.53;5076051;28;45477;-75
2022/11/13 07:05:45;;;;;;;;;2.67;2.00;;;;;16.17;48.22;100547.63;5076562;28;46177;-74
2022/11/13 07:08:11;;;;;;;;;4.00;4.00;;;;;16.15;48.23;100553.75;5076552;28;45299;-74
2022/11/13 07:10:37;;;;;;;;;58.50;46.00;;;;;16.13;48.35;100552.88;5074259;28;45457;-71
2022/11/13 07:13:03;;;;;;;;;19.50;19.00;;;;;16.13;48.26;100558.16;5077420;28;45476;-74
2022/11/13 07:15:31;;;;;;;;;17.25;16.00;;;;;16.14;48.52;100565.19;5076956;28;45871;-74
2022/11/13 07:17:59;;;;;;;;;6.00;6.00;;;;;16.07;48.42;100558.97;5074283;28;45597;-74
2022/11/13 07:20:26;;;;;;;;;6.00;5.00;;;;;16.09;48.41;100559.88;5070397;28;45369;-75
2022/11/13 07:22:55;;;;;;;;;3.33;3.00;;;;;16.18;48.46;100564.34;5075135;28;45682;-72
2022/11/13 07:25:20;;;;;;;;;2.67;2.67;;;;;16.13;48.74;100556.38;5074782;28;46092;-74
2022/11/13 07:27:46;;;;;;;;;4.33;4.33;;;;;16.20;48.49;100567.88;5077138;27;45417;-74
2022/11/13 07:30:12;;;;;;;;;3.00;3.00;;;;;16.22;48.67;100563.50;5057906;28;45338;-73
2022/11/13 07:32:37;;;;;;;;;10.00;7.67;;;;;16.22;48.42;100563.50;5075446;28;45473;-73
2022/11/13 07:35:03;;;;;;;;;14.50;12.00;;;;;16.23;48.62;100562.59;5076368;28;45552;-74
2022/11/13 07:37:29;;;;;;;;;8.00;7.33;;;;;16.23;48.87;100575.78;5074521;28;45529;-75
2022/11/13 07:39:54;;;;;;;;;9.33;8.33;;;;;16.22;48.85;100574.03;5074872;28;45508;-74
2022/11/13 07:42:20;;;;;;;;;21.00;18.75;;;;;16.25;49.00;100590.75;5075097;28;45509;-73
2022/11/13 07:44:45;;;;;;;;;10.67;9.00;;;;;16.20;49.14;100570.50;5069651;28;46249;-73
2022/11/13 07:47:11;;;;;;;;;11.00;10.00;;;;;16.25;49.20;100569.69;5076060;28;45476;-71
2022/11/13 07:49:37;;;;;;;;;4.00;4.00;;;;;16.30;49.61;100580.25;5074361;28;45701;-71
2022/11/13 07:52:02;;;;;;;;;6.00;5.00;;;;;16.31;49.49;100568.81;5074286;27;45450;-71
2022/11/13 07:54:28;;;;;;;;;8.33;8.33;;;;;16.27;49.60;100556.47;5072285;28;45941;-70
2022/11/13 07:56:53;;;;;;;;;4.00;4.00;;;;;16.41;49.57;100575.94;5075051;28;45881;-71
2022/11/13 07:59:19;;;;;;;;;3.67;2.00;;;;;16.44;49.03;100570.66;5072579;28;45584;-70
2022/11/13 08:01:44;;;;;;;;;3.00;2.00;;;;;16.61;48.71;100568.16;5057377;28;45556;-70
2022/11/13 08:04:10;;;;;;;;;3.00;2.33;;;;;16.78;48.10;100573.50;5074997;28;46100;-70
2022/11/13 08:06:36;;;;;;;;;4.00;3.00;;;;;16.90;47.32;100567.44;5072270;28;45540;-70
2022/11/13 08:09:02;;;;;;;;;6.00;6.00;;;;;16.97;48.31;100566.59;5076125;28;45732;-70
2022/11/13 08:11:28;;;;;;;;;2.67;2.67;;;;;17.05;48.95;100572.78;5075062;28;45509;-71
2022/11/13 08:13:53;;;;;;;;;5.00;5.00;;;;;17.10;48.55;100581.56;5069788;28;45508;-72
2022/11/13 08:16:19;;;;;;;;;7.00;5.00;;;;;17.16;48.84;100578.09;5075260;28;45630;-70
2022/11/13 08:18:44;;;;;;;;;3.00;2.00;;;;;17.20;48.93;100582.50;5072859;28;45499;-71
2022/11/13 08:21:10;;;;;;;;;2.33;2.33;;;;;17.27;49.28;100580.78;5077055;28;45381;-70
2022/11/13 08:23:35;;;;;;;;;2.00;2.00;;;;;17.81;49.00;100580.88;5073346;28;45517;-68
2022/11/13 08:26:05;;;;;;;;;1.67;1.67;;;;;19.18;47.23;100581.56;5071991;28;45665;-71
2022/11/13 08:28:31;;;;;;;;;2.67;2.67;;;;;20.98;43.31;100571.22;5073267;28;45474;-72
2022/11/13 08:30:57;;;;;;;;;3.00;3.00;;;;;22.55;40.86;100559.06;5075977;27;45801;-72
2022/11/13 08:33:22;;;;;;;;;2.67;2.00;;;;;23.78;38.22;100574.25;5074415;28;45405;-71
2022/11/13 08:35:53;;;;;;;;;3.00;2.00;;;;;24.72;37.28;100571.81;5072082;28;45544;-70
2022/11/13 08:38:22;;;;;;;;;2.00;1.00;;;;;25.42;35.85;100570.69;5075614;28;45480;-72
2022/11/13 08:40:48;;;;;;;;;1.00;1.00;;;;;25.95;34.85;100571.66;5071311;27;45831;-70
2022/11/13 08:43:13;;;;;;;;;2.00;2.00;;;;;26.44;33.97;100578.94;5035504;28;46270;-70
2022/11/13 08:45:39;;;;;;;;;2.00;2.00;;;;;26.77;32.52;100569.72;5040070;28;45398;-70
2022/11/13 08:48:05;;;;;;;;;5.00;5.00;;;;;27.10;32.07;100571.19;5043655;28;45422;-71
2022/11/13 08:50:33;;;;;;;;;20.67;18.33;;;;;27.41;31.87;100572.72;5041181;28;46949;-70
2022/11/13 08:53:00;;;;;;;;;11.67;10.67;;;;;27.59;31.54;100569.28;5041339;28;46832;-70
2022/11/13 08:55:27;;;;;;;;;8.00;8.00;;;;;27.81;30.87;100574.66;5041620;28;45485;-73
2022/11/13 08:57:53;;;;;;;;;6.33;5.67;;;;;27.87;30.41;100570.84;5035576;28;45359;-71
2022/11/13 09:00:19;;;;;;;;;9.00;8.67;;;;;27.94;31.04;100565.19;5042675;28;45504;-71
2022/11/13 09:02:45;;;;;;;;;5.33;4.00;;;;;28.14;30.23;100568.84;5044713;28;45438;-70
2022/11/13 09:05:11;;;;;;;;;3.33;3.33;;;;;28.10;30.38;100568.09;5025812;28;45444;-71
2022/11/13 09:07:37;;;;;;;;;5.67;5.67;;;;;28.14;31.43;100566.16;5040945;28;45534;-71
2022/11/13 09:10:03;;;;;;;;;5.00;5.00;;;;;28.26;30.71;100562.94;5042921;28;45621;-69
2022/11/13 09:12:29;;;;;;;;;6.00;4.33;;;;;28.30;30.53;100569.06;5040898;28;46083;-72
2022/11/13 09:14:54;;;;;;;;;3.67;3.67;;;;;28.36;30.89;100572.34;5044010;28;46053;-71
2022/11/13 09:17:20;;;;;;;;;6.33;6.33;;;;;28.38;30.72;100560.66;5040965;28;45454;-69
2022/11/13 09:19:45;;;;;;;;;5.00;4.00;;;;;28.43;30.46;100564.00;5039171;28;45823;-71
2022/11/13 09:22:11;;;;;;;;;5.00;5.00;;;;;28.56;30.28;100570.63;5016704;28;45680;-71
2022/11/13 09:24:37;;;;;;;;;4.00;3.00;;;;;28.62;31.05;100556.91;5033387;28;45608;-72
2022/11/13 09:27:02;;;;;;;;;1.00;1.00;;;;;28.66;29.76;100549.59;5015497;28;45448;-72
2022/11/13 09:29:28;;;;;;;;;2.00;2.00;;;;;28.63;29.36;100558.69;5016134;28;45878;-74
2022/11/13 09:31:54;;;;;;;;;3.00;2.00;;;;;28.55;30.07;100550.06;5020030;28;45951;-75
2022/11/13 09:34:20;;;;;;;;;1.67;1.67;;;;;28.63;30.10;100553.31;5023266;28;45431;-74
2022/11/13 09:36:46;;;;;;;;;3.00;2.00;;;;;28.74;28.95;100542.91;5030117;28;45494;-71
2022/11/13 09:39:12;;;;;;;;;2.67;1.67;;;;;28.69;29.47;100547.66;5038960;28;45498;-71
2022/11/13 09:41:47;;;;;;;;;4.67;4.00;;;;;28.57;29.51;100542.81;5044983;28;45501;-72
2022/11/13 09:44:21;;;;;;;;;4.33;4.00;;;;;28.49;29.47;100537.75;5037615;28;45925;-73
2022/11/13 09:46:54;;;;;;;;;2.00;2.00;;;;;28.40;30.32;100524.72;5048455;28;45812;-73
2022/11/13 09:49:34;;;;;;;;;21.50;21.50;;;;;28.52;29.81;100545.69;5045360;28;46303;-76
2022/11/13 09:52:11;;;;;;;;;5.00;4.00;;;;;28.43;30.37;100535.34;5048615;28;45430;-75
2022/11/13 09:54:37;;;;;;;;;3.33;3.33;;;;;28.19;29.32;100526.53;5048196;28;45233;-74
2022/11/13 09:57:18;;;;;;;;;2.00;2.00;;;;;28.13;30.24;100533.06;5047883;28;45528;-73
2022/11/13 09:59:52;;;;;;;;;2.67;2.00;;;;;28.13;30.09;100532.16;5047876;28;45489;-71
2022/11/13 10:02:39;;;;;;;;;2.00;1.00;;;;;27.78;30.29;100526.47;5049854;28;45543;-72
2022/11/13 10:05:29;;;;;;;;;6.00;6.00;;;;;27.74;30.66;100530.22;5031938;28;45464;-74
2022/11/13 10:08:12;;;;;;;;;4.00;3.33;;;;;27.63;30.50;100516.38;5046293;28;45830;-78
2022/11/13 10:10:56;;;;;;;;;6.00;5.00;;;;;27.55;30.63;100520.22;5046327;28;45394;-72
2022/11/13 10:13:38;;;;;;;;;5.00;4.33;;;;;27.40;31.47;100514.63;5045503;28;45445;-73
2022/11/13 10:16:38;;;;;;;;;5.00;5.00;;;;;27.40;31.46;100519.97;5047286;28;45693;-73
2022/11/13 10:19:15;;;;;;;;;4.00;4.00;;;;;27.06;31.57;100475.69;5041921;28;45957;-80
2022/11/13 10:21:49;;;;;;;;;3.33;3.00;;;;;27.30;31.96;100525.72;5040251;28;45383;-77
2022/11/13 10:24:26;;;;;;;;;4.00;4.00;;;;;27.20;31.32;100513.59;5042804;28;45518;-81
2022/11/13 10:26:56;;;;;;;;;2.33;2.33;;;;;27.17;31.63;100519.06;5040882;28;45877;-81
2022/11/13 10:29:23;;;;;;;;;7.67;7.67;;;;;27.03;32.02;100511.56;5047132;28;45477;-80
2022/11/13 10:31:51;;;;;;;;;3.67;3.00;;;;;27.10;31.71;100514.91;5027723;28;45609;-81
2022/11/13 10:34:17;;;;;;;;;3.33;2.33;;;;;26.90;31.52;100504.91;5025840;28;46443;-80
2022/11/13 10:37:04;;;;;;;;;3.00;3.00;;;;;26.78;31.77;100496.44;5043202;28;45404;-80
2022/11/13 10:39:30;;;;;;;;;4.00;3.00;;;;;26.70;31.82;100481.56;5044523;28;45363;-80
2022/11/13 10:41:55;;;;;;;;;3.67;3.00;;;;;26.66;32.01;100486.19;5044426;28;45385;-80
2022/11/13 10:44:29;;;;;;;;;5.00;3.67;;;;;26.51;31.87;100492.06;5035161;28;45513;-79
2022/11/13 10:47:28;;;;;;;;;4.00;3.00;;;;;26.35;32.25;100487.28;5031841;28;46107;-77
2022/11/13 10:50:07;;;;;;;;;2.00;2.00;;;;;26.31;32.33;100491.00;4995754;28;45672;-71
2022/11/13 10:52:33;;;;;;;;;1.67;1.67;;;;;26.33;32.08;100477.56;5030094;28;45412;-77
2022/11/13 10:55:33;;;;;;;;;3.00;2.33;;;;;26.24;31.92;100473.38;5027807;28;45363;-76
2022/11/13 10:58:01;;;;;;;;;2.00;2.00;;;;;26.16;32.31;100471.00;5041317;28;45323;-76
2022/11/13 11:00:37;;;;;;;;;1.67;1.67;;;;;26.06;32.18;100450.81;5041634;28;45426;-77
2022/11/13 11:03:07;;;;;;;;;1.67;1.67;;;;;25.98;32.42;100445.78;5039234;28;45526;-77
2022/11/13 11:05:33;;;;;;;;;2.00;2.00;;;;;25.96;32.95;100453.00;5043472;28;46160;-79
2022/11/13 11:07:58;;;;;;;;;3.00;2.00;;;;;25.90;33.32;100452.28;5028056;28;45436;-78
2022/11/13 11:12:14;;;;;;;;;1.00;1.00;;;;;25.85;33.09;100444.41;5046474;28;45464;-79
2022/11/13 11:13:28;;;;;;;;;3.00;2.00;;;;;25.76;33.03;100439.38;5043706;28;45388;-77
2022/11/13 11:15:58;;;;;;;;;3.00;3.00;;;;;25.70;32.65;100420.84;5048221;28;46183;-80
2022/11/13 11:18:39;;;;;;;;;1.00;1.00;;;;;25.70;32.75;100436.91;5055686;28;45482;-80
2022/11/13 11:21:11;;;;;;;;;3.00;2.00;;;;;25.57;32.90;100405.25;5056718;28;45541;-77
2022/11/13 11:23:59;;;;;;;;;2.00;2.00;;;;;25.60;32.27;100421.19;5056577;28;45363;-78
2022/11/13 11:26:50;;;;;;;;;3.00;2.33;;;;;25.54;33.16;100413.34;5055789;28;45374;-80
2022/11/13 11:29:25;;;;;;;;;2.00;2.00;;;;;25.45;33.88;100404.81;5043871;28;45285;-79
2022/11/13 11:32:00;;;;;;;;;1.00;1.00;;;;;25.43;33.87;100410.19;5037391;28;45335;-79